sensor_id;sensor_type;location;lat;lon;timestamp;P1;durP1;ratioP1;P2;durP2;ratioP2
49460;SDS011;35355;49.198;-0.368;2022-07-05T00:01:48;3.42;;;0.55;;
49460;SDS011;35355;49.198;-0.368;2022-07-05T00:04:13;5.85;;;0.98;;
49460;SDS011;35355;49.198;-0.368;2022-07-05T00:06:39;2.70;;;0.60;;
49460;SDS011;35355;49.198;-0.368;2022-07-05T00:09:27;6.28;;;0.88;;
49460;SDS011;35355;49.198;-0.368;2022-07-05T00:11:53;2.47;;;0.70;;
49460;SDS011;35355;49.198;-0.368;2022-07-05T00:14:18;5.63;;;1.05;;
49460;SDS011;35355;49.198;-0.368;2022-07-05T00:16:44;2.67;;;0.50;;
49460;SDS011;35355;49.198;-0.368;2022-07-05T00:19:09;6.18;;;0.98;;
49460;SDS011;35355;49.198;-0.368;2022-07-05T00:21:34;3.05;;;0.70;;
49460;SDS011;35355;49.198;-0.368;2022-07-05T00:24:00;1.85;;;0.68;;
49460;SDS011;35355;49.198;-0.368;2022-07-05T00:26:25;7.30;;;0.85;;
49460;SDS011;35355;49.198;-0.368;2022-07-05T00:28:50;5.53;;;1.42;;
49460;SDS011;35355;49.198;-0.368;2022-07-05T00:31:16;5.93;;;1.00;;
49460;SDS011;35355;49.198;-0.368;2022-07-05T00:33:41;8.77;;;1.13;;
49460;SDS011;35355;49.198;-0.368;2022-07-05T00:36:06;8.25;;;1.05;;
49460;SDS011;35355;49.198;-0.368;2022-07-05T00:38:32;2.75;;;0.70;;
49460;SDS011;35355;49.198;-0.368;2022-07-05T00:40:57;7.10;;;0.85;;
49460;SDS011;35355;49.198;-0.368;2022-07-05T00:43:23;4.80;;;0.65;;
49460;SDS011;35355;49.198;-0.368;2022-07-05T00:45:48;2.53;;;0.77;;
49460;SDS011;35355;49.198;-0.368;2022-07-05T00:48:14;2.42;;;0.47;;
49460;SDS011;35355;49.198;-0.368;2022-07-05T00:50:40;3.35;;;0.80;;
49460;SDS011;35355;49.198;-0.368;2022-07-05T00:53:06;1.23;;;0.60;;
49460;SDS011;35355;49.198;-0.368;2022-07-05T00:55:32;3.17;;;0.98;;
49460;SDS011;35355;49.198;-0.368;2022-07-05T00:57:58;3.97;;;0.85;;
49460;SDS011;35355;49.198;-0.368;2022-07-05T01:00:23;5.18;;;0.95;;
49460;SDS011;35355;49.198;-0.368;2022-07-05T01:02:48;6.72;;;1.33;;
49460;SDS011;35355;49.198;-0.368;2022-07-05T01:05:14;5.30;;;1.00;;
49460;SDS011;35355;49.198;-0.368;2022-07-05T01:07:39;2.38;;;0.80;;
49460;SDS011;35355;49.198;-0.368;2022-07-05T01:10:05;2.92;;;0.70;;
49460;SDS011;35355;49.198;-0.368;2022-07-05T01:12:31;4.28;;;1.08;;
49460;SDS011;35355;49.198;-0.368;2022-07-05T01:14:56;3.95;;;1.13;;
49460;SDS011;35355;49.198;-0.368;2022-07-05T01:17:22;6.05;;;1.38;;
49460;SDS011;35355;49.198;-0.368;2022-07-05T01:19:48;4.50;;;1.15;;
49460;SDS011;35355;49.198;-0.368;2022-07-05T01:22:16;6.32;;;1.20;;
49460;SDS011;35355;49.198;-0.368;2022-07-05T01:24:43;3.75;;;0.77;;
49460;SDS011;35355;49.198;-0.368;2022-07-05T01:27:10;5.82;;;1.35;;
49460;SDS011;35355;49.198;-0.368;2022-07-05T01:29:36;4.25;;;0.82;;
49460;SDS011;35355;49.198;-0.368;2022-07-05T01:32:01;6.25;;;0.90;;
49460;SDS011;35355;49.198;-0.368;2022-07-05T01:34:27;6.95;;;1.20;;
49460;SDS011;35355;49.198;-0.368;2022-07-05T01:36:52;6.60;;;1.20;;
49460;SDS011;35355;49.198;-0.368;2022-07-05T01:39:18;6.07;;;1.63;;
49460;SDS011;35355;49.198;-0.368;2022-07-05T01:41:44;6.05;;;0.88;;
49460;SDS011;35355;49.198;-0.368;2022-07-05T01:44:10;2.95;;;0.70;;
49460;SDS011;35355;49.198;-0.368;2022-07-05T01:46:36;4.20;;;0.90;;
49460;SDS011;35355;49.198;-0.368;2022-07-05T01:49:06;3.20;;;0.77;;
49460;SDS011;35355;49.198;-0.368;2022-07-05T01:51:34;5.32;;;0.93;;
49460;SDS011;35355;49.198;-0.368;2022-07-05T01:54:09;6.35;;;1.50;;
49460;SDS011;35355;49.198;-0.368;2022-07-05T01:56:36;3.35;;;0.88;;
49460;SDS011;35355;49.198;-0.368;2022-07-05T01:59:02;6.18;;;0.82;;
49460;SDS011;35355;49.198;-0.368;2022-07-05T02:01:31;3.55;;;1.02;;
49460;SDS011;35355;49.198;-0.368;2022-07-05T02:04:00;3.38;;;1.25;;
49460;SDS011;35355;49.198;-0.368;2022-07-05T02:06:26;6.03;;;1.00;;
49460;SDS011;35355;49.198;-0.368;2022-07-05T02:08:52;4.47;;;0.95;;
49460;SDS011;35355;49.198;-0.368;2022-07-05T02:11:17;4.00;;;1.20;;
49460;SDS011;35355;49.198;-0.368;2022-07-05T02:13:42;2.50;;;1.00;;
49460;SDS011;35355;49.198;-0.368;2022-07-05T02:16:08;3.15;;;0.95;;
49460;SDS011;35355;49.198;-0.368;2022-07-05T02:18:33;5.10;;;0.93;;
49460;SDS011;35355;49.198;-0.368;2022-07-05T02:20:58;4.88;;;1.23;;
49460;SDS011;35355;49.198;-0.368;2022-07-05T02:23:24;6.70;;;1.10;;
49460;SDS011;35355;49.198;-0.368;2022-07-05T02:25:49;3.30;;;1.00;;
49460;SDS011;35355;49.198;-0.368;2022-07-05T02:28:15;3.67;;;0.75;;
49460;SDS011;35355;49.198;-0.368;2022-07-05T02:30:40;4.88;;;1.02;;
49460;SDS011;35355;49.198;-0.368;2022-07-05T02:33:06;3.97;;;1.10;;
49460;SDS011;35355;49.198;-0.368;2022-07-05T02:35:31;6.22;;;1.20;;
49460;SDS011;35355;49.198;-0.368;2022-07-05T02:37:56;6.72;;;1.55;;
49460;SDS011;35355;49.198;-0.368;2022-07-05T02:40:22;4.10;;;1.60;;
49460;SDS011;35355;49.198;-0.368;2022-07-05T02:42:47;6.07;;;1.70;;
49460;SDS011;35355;49.198;-0.368;2022-07-05T02:45:12;5.88;;;1.15;;
49460;SDS011;35355;49.198;-0.368;2022-07-05T02:47:38;5.63;;;1.08;;
49460;SDS011;35355;49.198;-0.368;2022-07-05T02:50:04;7.38;;;1.33;;
49460;SDS011;35355;49.198;-0.368;2022-07-05T02:52:31;4.72;;;1.05;;
49460;SDS011;35355;49.198;-0.368;2022-07-05T02:54:57;3.10;;;0.80;;
49460;SDS011;35355;49.198;-0.368;2022-07-05T02:57:22;3.83;;;1.10;;
49460;SDS011;35355;49.198;-0.368;2022-07-05T02:59:47;6.90;;;1.05;;
49460;SDS011;35355;49.198;-0.368;2022-07-05T03:02:13;5.10;;;1.20;;
49460;SDS011;35355;49.198;-0.368;2022-07-05T03:04:38;7.35;;;1.65;;
49460;SDS011;35355;49.198;-0.368;2022-07-05T03:07:03;3.38;;;0.70;;
49460;SDS011;35355;49.198;-0.368;2022-07-05T03:09:29;5.80;;;1.48;;
49460;SDS011;35355;49.198;-0.368;2022-07-05T03:11:54;4.47;;;1.20;;
49460;SDS011;35355;49.198;-0.368;2022-07-05T03:14:20;4.78;;;1.00;;
49460;SDS011;35355;49.198;-0.368;2022-07-05T03:16:45;3.88;;;1.33;;
49460;SDS011;35355;49.198;-0.368;2022-07-05T03:19:10;4.22;;;0.90;;
49460;SDS011;35355;49.198;-0.368;2022-07-05T03:21:36;3.90;;;1.10;;
49460;SDS011;35355;49.198;-0.368;2022-07-05T03:24:01;3.85;;;1.60;;
49460;SDS011;35355;49.198;-0.368;2022-07-05T03:26:27;4.30;;;1.00;;
49460;SDS011;35355;49.198;-0.368;2022-07-05T03:28:52;5.07;;;1.25;;
49460;SDS011;35355;49.198;-0.368;2022-07-05T03:31:18;5.25;;;1.33;;
49460;SDS011;35355;49.198;-0.368;2022-07-05T03:33:43;6.18;;;0.90;;
49460;SDS011;35355;49.198;-0.368;2022-07-05T03:36:08;5.90;;;1.30;;
49460;SDS011;35355;49.198;-0.368;2022-07-05T03:38:34;3.10;;;0.90;;
49460;SDS011;35355;49.198;-0.368;2022-07-05T03:41:01;4.38;;;1.05;;
49460;SDS011;35355;49.198;-0.368;2022-07-05T03:43:27;4.40;;;0.85;;
49460;SDS011;35355;49.198;-0.368;2022-07-05T03:45:52;4.88;;;0.90;;
49460;SDS011;35355;49.198;-0.368;2022-07-05T03:48:19;2.33;;;0.93;;
49460;SDS011;35355;49.198;-0.368;2022-07-05T03:50:45;4.43;;;1.30;;
49460;SDS011;35355;49.198;-0.368;2022-07-05T03:53:10;5.53;;;0.95;;
49460;SDS011;35355;49.198;-0.368;2022-07-05T03:55:35;9.70;;;1.33;;
49460;SDS011;35355;49.198;-0.368;2022-07-05T03:58:01;6.38;;;1.50;;
49460;SDS011;35355;49.198;-0.368;2022-07-05T04:00:26;5.07;;;1.40;;
49460;SDS011;35355;49.198;-0.368;2022-07-05T04:02:51;2.97;;;1.05;;
49460;SDS011;35355;49.198;-0.368;2022-07-05T04:05:17;7.45;;;1.33;;
49460;SDS011;35355;49.198;-0.368;2022-07-05T04:07:52;3.95;;;1.10;;
49460;SDS011;35355;49.198;-0.368;2022-07-05T04:10:18;3.28;;;0.93;;
49460;SDS011;35355;49.198;-0.368;2022-07-05T04:12:44;3.60;;;0.93;;
49460;SDS011;35355;49.198;-0.368;2022-07-05T04:15:10;2.53;;;1.10;;
49460;SDS011;35355;49.198;-0.368;2022-07-05T04:17:55;6.00;;;1.77;;
49460;SDS011;35355;49.198;-0.368;2022-07-05T04:20:22;4.95;;;1.38;;
49460;SDS011;35355;49.198;-0.368;2022-07-05T04:22:49;3.30;;;1.02;;
49460;SDS011;35355;49.198;-0.368;2022-07-05T04:25:16;3.25;;;1.20;;
49460;SDS011;35355;49.198;-0.368;2022-07-05T04:27:42;5.72;;;1.20;;
49460;SDS011;35355;49.198;-0.368;2022-07-05T04:30:12;4.75;;;1.33;;
49460;SDS011;35355;49.198;-0.368;2022-07-05T04:32:38;3.67;;;1.00;;
49460;SDS011;35355;49.198;-0.368;2022-07-05T04:35:04;4.88;;;1.00;;
49460;SDS011;35355;49.198;-0.368;2022-07-05T04:37:29;4.45;;;0.98;;
49460;SDS011;35355;49.198;-0.368;2022-07-05T04:39:55;6.97;;;1.42;;
49460;SDS011;35355;49.198;-0.368;2022-07-05T04:42:20;11.18;;;2.25;;
49460;SDS011;35355;49.198;-0.368;2022-07-05T04:44:45;2.65;;;1.23;;
49460;SDS011;35355;49.198;-0.368;2022-07-05T04:47:11;4.70;;;1.13;;
49460;SDS011;35355;49.198;-0.368;2022-07-05T04:49:36;4.03;;;1.42;;
49460;SDS011;35355;49.198;-0.368;2022-07-05T04:52:02;9.63;;;1.13;;
49460;SDS011;35355;49.198;-0.368;2022-07-05T04:54:27;5.57;;;1.10;;
49460;SDS011;35355;49.198;-0.368;2022-07-05T04:56:53;3.35;;;1.20;;
49460;SDS011;35355;49.198;-0.368;2022-07-05T04:59:18;6.88;;;2.03;;
49460;SDS011;35355;49.198;-0.368;2022-07-05T05:01:43;7.05;;;1.00;;
49460;SDS011;35355;49.198;-0.368;2022-07-05T05:04:09;4.53;;;1.10;;
49460;SDS011;35355;49.198;-0.368;2022-07-05T05:06:34;3.05;;;0.90;;
49460;SDS011;35355;49.198;-0.368;2022-07-05T05:08:59;5.47;;;1.08;;
49460;SDS011;35355;49.198;-0.368;2022-07-05T05:11:25;5.00;;;1.38;;
49460;SDS011;35355;49.198;-0.368;2022-07-05T05:13:50;6.15;;;0.73;;
49460;SDS011;35355;49.198;-0.368;2022-07-05T05:16:15;5.43;;;1.23;;
49460;SDS011;35355;49.198;-0.368;2022-07-05T05:18:41;5.80;;;1.27;;
49460;SDS011;35355;49.198;-0.368;2022-07-05T05:21:06;7.35;;;1.90;;
49460;SDS011;35355;49.198;-0.368;2022-07-05T05:23:32;4.40;;;1.90;;
49460;SDS011;35355;49.198;-0.368;2022-07-05T05:25:57;3.47;;;1.00;;
49460;SDS011;35355;49.198;-0.368;2022-07-05T05:28:22;4.90;;;1.13;;
49460;SDS011;35355;49.198;-0.368;2022-07-05T05:30:48;8.55;;;1.73;;
49460;SDS011;35355;49.198;-0.368;2022-07-05T05:33:13;9.13;;;1.00;;
49460;SDS011;35355;49.198;-0.368;2022-07-05T05:35:38;7.32;;;1.23;;
49460;SDS011;35355;49.198;-0.368;2022-07-05T05:38:04;4.38;;;0.95;;
49460;SDS011;35355;49.198;-0.368;2022-07-05T05:40:29;5.05;;;0.80;;
49460;SDS011;35355;49.198;-0.368;2022-07-05T05:42:55;5.85;;;1.00;;
49460;SDS011;35355;49.198;-0.368;2022-07-05T05:45:21;3.55;;;0.70;;
49460;SDS011;35355;49.198;-0.368;2022-07-05T05:47:48;4.07;;;1.00;;
49460;SDS011;35355;49.198;-0.368;2022-07-05T05:50:21;6.50;;;1.52;;
49460;SDS011;35355;49.198;-0.368;2022-07-05T05:52:49;5.85;;;0.80;;
49460;SDS011;35355;49.198;-0.368;2022-07-05T05:55:14;5.22;;;1.00;;
49460;SDS011;35355;49.198;-0.368;2022-07-05T05:57:40;3.22;;;1.02;;
49460;SDS011;35355;49.198;-0.368;2022-07-05T06:00:05;2.00;;;0.60;;
49460;SDS011;35355;49.198;-0.368;2022-07-05T06:02:32;6.50;;;1.77;;
49460;SDS011;35355;49.198;-0.368;2022-07-05T06:04:58;5.15;;;0.80;;
49460;SDS011;35355;49.198;-0.368;2022-07-05T06:07:23;7.05;;;0.90;;
49460;SDS011;35355;49.198;-0.368;2022-07-05T06:09:49;4.47;;;1.05;;
49460;SDS011;35355;49.198;-0.368;2022-07-05T06:12:14;1.67;;;0.75;;
49460;SDS011;35355;49.198;-0.368;2022-07-05T06:14:39;3.28;;;0.57;;
49460;SDS011;35355;49.198;-0.368;2022-07-05T06:17:05;3.47;;;0.70;;
49460;SDS011;35355;49.198;-0.368;2022-07-05T06:19:30;5.47;;;1.17;;
49460;SDS011;35355;49.198;-0.368;2022-07-05T06:21:55;4.43;;;1.27;;
49460;SDS011;35355;49.198;-0.368;2022-07-05T06:24:21;8.65;;;1.27;;
49460;SDS011;35355;49.198;-0.368;2022-07-05T06:26:46;5.38;;;1.17;;
49460;SDS011;35355;49.198;-0.368;2022-07-05T06:29:11;4.43;;;0.45;;
49460;SDS011;35355;49.198;-0.368;2022-07-05T06:31:37;3.05;;;0.73;;
49460;SDS011;35355;49.198;-0.368;2022-07-05T06:34:02;4.80;;;0.75;;
49460;SDS011;35355;49.198;-0.368;2022-07-05T06:36:27;1.45;;;0.52;;
49460;SDS011;35355;49.198;-0.368;2022-07-05T06:38:53;7.78;;;1.58;;
49460;SDS011;35355;49.198;-0.368;2022-07-05T06:41:18;5.70;;;0.80;;
49460;SDS011;35355;49.198;-0.368;2022-07-05T06:43:43;4.70;;;0.73;;
49460;SDS011;35355;49.198;-0.368;2022-07-05T06:46:09;3.45;;;0.60;;
49460;SDS011;35355;49.198;-0.368;2022-07-05T06:48:34;7.80;;;1.10;;
49460;SDS011;35355;49.198;-0.368;2022-07-05T06:51:00;2.78;;;0.30;;
49460;SDS011;35355;49.198;-0.368;2022-07-05T06:53:25;1.98;;;0.55;;
49460;SDS011;35355;49.198;-0.368;2022-07-05T06:55:51;7.63;;;1.73;;
49460;SDS011;35355;49.198;-0.368;2022-07-05T06:58:16;5.50;;;1.30;;
49460;SDS011;35355;49.198;-0.368;2022-07-05T07:00:42;6.82;;;0.60;;
49460;SDS011;35355;49.198;-0.368;2022-07-05T07:03:08;3.88;;;0.70;;
49460;SDS011;35355;49.198;-0.368;2022-07-05T07:05:34;4.07;;;0.40;;
49460;SDS011;35355;49.198;-0.368;2022-07-05T07:07:59;3.03;;;0.63;;
49460;SDS011;35355;49.198;-0.368;2022-07-05T07:10:43;2.88;;;0.50;;
49460;SDS011;35355;49.198;-0.368;2022-07-05T07:13:09;2.67;;;0.40;;
49460;SDS011;35355;49.198;-0.368;2022-07-05T07:15:34;1.80;;;0.40;;
49460;SDS011;35355;49.198;-0.368;2022-07-05T07:18:00;4.68;;;0.60;;
49460;SDS011;35355;49.198;-0.368;2022-07-05T07:20:25;7.10;;;0.88;;
49460;SDS011;35355;49.198;-0.368;2022-07-05T07:22:52;5.78;;;0.50;;
49460;SDS011;35355;49.198;-0.368;2022-07-05T07:25:17;7.70;;;1.00;;
49460;SDS011;35355;49.198;-0.368;2022-07-05T07:27:45;8.35;;;1.27;;
49460;SDS011;35355;49.198;-0.368;2022-07-05T07:30:15;3.78;;;0.50;;
49460;SDS011;35355;49.198;-0.368;2022-07-05T07:32:41;10.82;;;1.20;;
49460;SDS011;35355;49.198;-0.368;2022-07-05T07:35:07;2.97;;;1.00;;
49460;SDS011;35355;49.198;-0.368;2022-07-05T07:37:33;2.70;;;0.70;;
49460;SDS011;35355;49.198;-0.368;2022-07-05T07:39:59;5.85;;;0.40;;
49460;SDS011;35355;49.198;-0.368;2022-07-05T07:42:26;3.15;;;0.63;;
49460;SDS011;35355;49.198;-0.368;2022-07-05T07:44:52;2.78;;;0.50;;
49460;SDS011;35355;49.198;-0.368;2022-07-05T07:47:17;2.97;;;0.60;;
49460;SDS011;35355;49.198;-0.368;2022-07-05T07:49:43;4.07;;;0.65;;
49460;SDS011;35355;49.198;-0.368;2022-07-05T07:52:08;7.30;;;0.60;;
49460;SDS011;35355;49.198;-0.368;2022-07-05T07:54:33;5.03;;;0.60;;
49460;SDS011;35355;49.198;-0.368;2022-07-05T07:56:59;3.92;;;0.40;;
49460;SDS011;35355;49.198;-0.368;2022-07-05T07:59:26;1.83;;;0.50;;
49460;SDS011;35355;49.198;-0.368;2022-07-05T08:01:52;5.80;;;0.68;;
49460;SDS011;35355;49.198;-0.368;2022-07-05T08:04:17;2.85;;;0.73;;
49460;SDS011;35355;49.198;-0.368;2022-07-05T08:06:43;3.40;;;0.57;;
49460;SDS011;35355;49.198;-0.368;2022-07-05T08:09:09;7.32;;;0.80;;
49460;SDS011;35355;49.198;-0.368;2022-07-05T08:11:35;4.00;;;0.82;;
49460;SDS011;35355;49.198;-0.368;2022-07-05T08:14:00;10.73;;;0.75;;
49460;SDS011;35355;49.198;-0.368;2022-07-05T08:16:25;4.05;;;0.50;;
49460;SDS011;35355;49.198;-0.368;2022-07-05T08:18:51;2.97;;;0.90;;
49460;SDS011;35355;49.198;-0.368;2022-07-05T08:24:03;3.58;;;0.40;;
49460;SDS011;35355;49.198;-0.368;2022-07-05T08:26:30;3.33;;;0.60;;
49460;SDS011;35355;49.198;-0.368;2022-07-05T08:28:57;2.85;;;0.40;;
49460;SDS011;35355;49.198;-0.368;2022-07-05T08:31:24;4.65;;;0.93;;
49460;SDS011;35355;49.198;-0.368;2022-07-05T08:33:50;5.03;;;0.68;;
49460;SDS011;35355;49.198;-0.368;2022-07-05T08:36:16;6.00;;;0.70;;
49460;SDS011;35355;49.198;-0.368;2022-07-05T08:38:41;3.92;;;0.57;;
49460;SDS011;35355;49.198;-0.368;2022-07-05T08:41:07;3.60;;;1.10;;
49460;SDS011;35355;49.198;-0.368;2022-07-05T08:43:35;2.30;;;0.50;;
49460;SDS011;35355;49.198;-0.368;2022-07-05T08:46:04;2.95;;;0.60;;
49460;SDS011;35355;49.198;-0.368;2022-07-05T08:48:33;2.00;;;0.63;;
49460;SDS011;35355;49.198;-0.368;2022-07-05T08:51:17;5.43;;;1.00;;
49460;SDS011;35355;49.198;-0.368;2022-07-05T08:53:47;7.78;;;1.48;;
49460;SDS011;35355;49.198;-0.368;2022-07-05T08:56:14;2.63;;;1.00;;
49460;SDS011;35355;49.198;-0.368;2022-07-05T08:58:40;3.63;;;1.40;;
49460;SDS011;35355;49.198;-0.368;2022-07-05T09:01:07;6.30;;;1.63;;
49460;SDS011;35355;49.198;-0.368;2022-07-05T09:03:42;3.28;;;1.77;;
49460;SDS011;35355;49.198;-0.368;2022-07-05T09:06:11;4.53;;;1.67;;
49460;SDS011;35355;49.198;-0.368;2022-07-05T09:08:38;5.07;;;1.83;;
49460;SDS011;35355;49.198;-0.368;2022-07-05T09:11:08;3.80;;;1.20;;
49460;SDS011;35355;49.198;-0.368;2022-07-05T09:13:36;5.82;;;0.73;;
49460;SDS011;35355;49.198;-0.368;2022-07-05T09:16:04;1.40;;;0.50;;
49460;SDS011;35355;49.198;-0.368;2022-07-05T09:18:49;2.10;;;0.85;;
49460;SDS011;35355;49.198;-0.368;2022-07-05T09:21:22;2.72;;;0.93;;
49460;SDS011;35355;49.198;-0.368;2022-07-05T09:23:59;2.60;;;0.85;;
49460;SDS011;35355;49.198;-0.368;2022-07-05T09:29:06;3.63;;;1.17;;
49460;SDS011;35355;49.198;-0.368;2022-07-05T09:31:36;3.63;;;0.70;;
49460;SDS011;35355;49.198;-0.368;2022-07-05T09:34:03;3.40;;;0.88;;
49460;SDS011;35355;49.198;-0.368;2022-07-05T09:44:37;4.28;;;0.95;;
49460;SDS011;35355;49.198;-0.368;2022-07-05T09:47:07;1.40;;;0.57;;
49460;SDS011;35355;49.198;-0.368;2022-07-05T09:49:35;2.15;;;0.70;;
49460;SDS011;35355;49.198;-0.368;2022-07-05T09:52:01;3.05;;;0.70;;
49460;SDS011;35355;49.198;-0.368;2022-07-05T09:54:26;2.45;;;0.50;;
49460;SDS011;35355;49.198;-0.368;2022-07-05T09:56:52;1.52;;;0.47;;
49460;SDS011;35355;49.198;-0.368;2022-07-05T09:59:18;1.67;;;0.40;;
49460;SDS011;35355;49.198;-0.368;2022-07-05T10:01:45;3.28;;;0.40;;
49460;SDS011;35355;49.198;-0.368;2022-07-05T10:04:10;3.28;;;0.47;;
49460;SDS011;35355;49.198;-0.368;2022-07-05T10:06:36;2.17;;;0.20;;
49460;SDS011;35355;49.198;-0.368;2022-07-05T10:09:01;0.85;;;0.40;;
49460;SDS011;35355;49.198;-0.368;2022-07-05T10:11:27;3.85;;;0.50;;
49460;SDS011;35355;49.198;-0.368;2022-07-05T10:13:52;0.35;;;0.20;;
49460;SDS011;35355;49.198;-0.368;2022-07-05T10:16:22;0.15;;;0.15;;
49460;SDS011;35355;49.198;-0.368;2022-07-05T10:18:51;0.93;;;0.20;;
49460;SDS011;35355;49.198;-0.368;2022-07-05T10:21:19;1.13;;;0.20;;
49460;SDS011;35355;49.198;-0.368;2022-07-05T10:23:49;2.58;;;0.50;;
49460;SDS011;35355;49.198;-0.368;2022-07-05T10:26:22;5.00;;;0.45;;
49460;SDS011;35355;49.198;-0.368;2022-07-05T10:28:52;1.65;;;0.57;;
49460;SDS011;35355;49.198;-0.368;2022-07-05T10:31:18;1.85;;;0.43;;
49460;SDS011;35355;49.198;-0.368;2022-07-05T10:33:44;1.13;;;0.25;;
49460;SDS011;35355;49.198;-0.368;2022-07-05T10:36:10;0.85;;;0.30;;
49460;SDS011;35355;49.198;-0.368;2022-07-05T10:38:37;3.10;;;0.43;;
49460;SDS011;35355;49.198;-0.368;2022-07-05T10:41:04;1.88;;;0.80;;
49460;SDS011;35355;49.198;-0.368;2022-07-05T10:43:32;1.67;;;0.60;;
49460;SDS011;35355;49.198;-0.368;2022-07-05T10:45:57;2.13;;;0.20;;
49460;SDS011;35355;49.198;-0.368;2022-07-05T10:48:25;2.30;;;0.32;;
49460;SDS011;35355;49.198;-0.368;2022-07-05T10:50:52;2.85;;;1.05;;
49460;SDS011;35355;49.198;-0.368;2022-07-05T10:53:24;2.45;;;0.38;;
49460;SDS011;35355;49.198;-0.368;2022-07-05T10:58:46;0.40;;;0.20;;
49460;SDS011;35355;49.198;-0.368;2022-07-05T11:03:44;0.90;;;0.22;;
49460;SDS011;35355;49.198;-0.368;2022-07-05T11:06:20;1.00;;;0.20;;
49460;SDS011;35355;49.198;-0.368;2022-07-05T11:13:56;3.47;;;0.43;;
49460;SDS011;35355;49.198;-0.368;2022-07-05T11:16:35;2.38;;;0.30;;
49460;SDS011;35355;49.198;-0.368;2022-07-05T11:21:34;1.40;;;0.20;;
49460;SDS011;35355;49.198;-0.368;2022-07-05T11:26:45;4.30;;;0.40;;
49460;SDS011;35355;49.198;-0.368;2022-07-05T11:32:14;1.38;;;0.20;;
49460;SDS011;35355;49.198;-0.368;2022-07-05T11:34:50;1.57;;;0.60;;
49460;SDS011;35355;49.198;-0.368;2022-07-05T11:37:18;3.35;;;0.30;;
49460;SDS011;35355;49.198;-0.368;2022-07-05T11:39:44;0.60;;;0.30;;
49460;SDS011;35355;49.198;-0.368;2022-07-05T11:42:20;1.58;;;0.30;;
49460;SDS011;35355;49.198;-0.368;2022-07-05T11:44:49;3.33;;;0.20;;
49460;SDS011;35355;49.198;-0.368;2022-07-05T11:47:18;5.65;;;0.32;;
49460;SDS011;35355;49.198;-0.368;2022-07-05T11:49:54;2.17;;;0.35;;
49460;SDS011;35355;49.198;-0.368;2022-07-05T11:52:27;1.02;;;0.25;;
49460;SDS011;35355;49.198;-0.368;2022-07-05T11:54:54;1.70;;;0.30;;
49460;SDS011;35355;49.198;-0.368;2022-07-05T11:57:21;3.60;;;0.40;;
49460;SDS011;35355;49.198;-0.368;2022-07-05T11:59:46;3.03;;;0.35;;
49460;SDS011;35355;49.198;-0.368;2022-07-05T12:02:12;1.27;;;0.30;;
49460;SDS011;35355;49.198;-0.368;2022-07-05T12:04:38;1.15;;;0.20;;
49460;SDS011;35355;49.198;-0.368;2022-07-05T12:07:04;2.05;;;0.50;;
49460;SDS011;35355;49.198;-0.368;2022-07-05T12:09:32;1.40;;;0.30;;
49460;SDS011;35355;49.198;-0.368;2022-07-05T12:12:24;2.85;;;0.70;;
49460;SDS011;35355;49.198;-0.368;2022-07-05T12:15:08;0.70;;;0.40;;
49460;SDS011;35355;49.198;-0.368;2022-07-05T12:17:34;2.67;;;0.28;;
49460;SDS011;35355;49.198;-0.368;2022-07-05T12:20:00;2.10;;;0.30;;
49460;SDS011;35355;49.198;-0.368;2022-07-05T12:22:33;4.18;;;0.30;;
49460;SDS011;35355;49.198;-0.368;2022-07-05T12:24:59;2.13;;;0.30;;
49460;SDS011;35355;49.198;-0.368;2022-07-05T12:27:29;1.88;;;0.20;;
49460;SDS011;35355;49.198;-0.368;2022-07-05T12:29:56;1.75;;;0.20;;
49460;SDS011;35355;49.198;-0.368;2022-07-05T12:32:22;1.55;;;0.20;;
49460;SDS011;35355;49.198;-0.368;2022-07-05T12:34:47;3.05;;;0.30;;
49460;SDS011;35355;49.198;-0.368;2022-07-05T12:37:22;2.97;;;0.25;;
49460;SDS011;35355;49.198;-0.368;2022-07-05T12:39:49;2.70;;;0.20;;
49460;SDS011;35355;49.198;-0.368;2022-07-05T12:42:31;0.50;;;0.10;;
49460;SDS011;35355;49.198;-0.368;2022-07-05T12:45:13;0.65;;;0.32;;
49460;SDS011;35355;49.198;-0.368;2022-07-05T12:50:19;1.25;;;0.17;;
49460;SDS011;35355;49.198;-0.368;2022-07-05T12:53:04;2.70;;;0.32;;
49460;SDS011;35355;49.198;-0.368;2022-07-05T12:58:44;0.73;;;0.20;;
49460;SDS011;35355;49.198;-0.368;2022-07-05T13:03:58;1.95;;;0.38;;
49460;SDS011;35355;49.198;-0.368;2022-07-05T13:09:37;0.95;;;0.22;;
49460;SDS011;35355;49.198;-0.368;2022-07-05T13:14:34;2.08;;;0.40;;
49460;SDS011;35355;49.198;-0.368;2022-07-05T13:17:00;1.38;;;0.20;;
49460;SDS011;35355;49.198;-0.368;2022-07-05T13:19:26;1.27;;;0.17;;
49460;SDS011;35355;49.198;-0.368;2022-07-05T13:21:51;1.17;;;0.38;;
49460;SDS011;35355;49.198;-0.368;2022-07-05T13:24:16;4.85;;;0.60;;
49460;SDS011;35355;49.198;-0.368;2022-07-05T13:26:44;3.00;;;0.35;;
49460;SDS011;35355;49.198;-0.368;2022-07-05T13:29:09;2.28;;;0.30;;
49460;SDS011;35355;49.198;-0.368;2022-07-05T13:31:35;1.67;;;0.30;;
49460;SDS011;35355;49.198;-0.368;2022-07-05T13:34:00;4.28;;;0.30;;
49460;SDS011;35355;49.198;-0.368;2022-07-05T13:36:26;1.98;;;0.57;;
49460;SDS011;35355;49.198;-0.368;2022-07-05T13:38:52;1.02;;;0.13;;
49460;SDS011;35355;49.198;-0.368;2022-07-05T13:41:18;1.58;;;0.22;;
49460;SDS011;35355;49.198;-0.368;2022-07-05T13:43:43;2.85;;;0.30;;
49460;SDS011;35355;49.198;-0.368;2022-07-05T13:46:09;0.95;;;0.20;;
49460;SDS011;35355;49.198;-0.368;2022-07-05T13:48:38;0.50;;;0.30;;
49460;SDS011;35355;49.198;-0.368;2022-07-05T13:51:04;3.25;;;0.28;;
49460;SDS011;35355;49.198;-0.368;2022-07-05T13:53:30;1.95;;;0.20;;
49460;SDS011;35355;49.198;-0.368;2022-07-05T13:55:55;3.00;;;0.22;;
49460;SDS011;35355;49.198;-0.368;2022-07-05T13:58:21;1.98;;;0.25;;
49460;SDS011;35355;49.198;-0.368;2022-07-05T14:00:46;0.52;;;0.20;;
49460;SDS011;35355;49.198;-0.368;2022-07-05T14:03:12;2.63;;;0.40;;
49460;SDS011;35355;49.198;-0.368;2022-07-05T14:05:37;1.67;;;0.40;;
49460;SDS011;35355;49.198;-0.368;2022-07-05T14:08:04;2.08;;;0.25;;
49460;SDS011;35355;49.198;-0.368;2022-07-05T14:10:29;2.25;;;0.40;;
49460;SDS011;35355;49.198;-0.368;2022-07-05T14:12:55;0.77;;;0.20;;
49460;SDS011;35355;49.198;-0.368;2022-07-05T14:15:20;0.73;;;0.30;;
49460;SDS011;35355;49.198;-0.368;2022-07-05T14:17:46;0.98;;;0.15;;
49460;SDS011;35355;49.198;-0.368;2022-07-05T14:20:11;1.60;;;0.32;;
49460;SDS011;35355;49.198;-0.368;2022-07-05T14:22:36;1.00;;;0.40;;
49460;SDS011;35355;49.198;-0.368;2022-07-05T14:25:02;3.72;;;0.32;;
49460;SDS011;35355;49.198;-0.368;2022-07-05T14:27:27;3.45;;;0.40;;
49460;SDS011;35355;49.198;-0.368;2022-07-05T14:29:53;1.15;;;0.10;;
49460;SDS011;35355;49.198;-0.368;2022-07-05T14:32:18;2.20;;;0.30;;
49460;SDS011;35355;49.198;-0.368;2022-07-05T14:34:43;0.93;;;0.30;;
49460;SDS011;35355;49.198;-0.368;2022-07-05T14:37:09;2.45;;;0.20;;
49460;SDS011;35355;49.198;-0.368;2022-07-05T14:39:34;3.30;;;0.52;;
49460;SDS011;35355;49.198;-0.368;2022-07-05T14:41:59;4.35;;;0.40;;
49460;SDS011;35355;49.198;-0.368;2022-07-05T14:44:25;1.60;;;0.32;;
49460;SDS011;35355;49.198;-0.368;2022-07-05T14:46:50;4.22;;;0.63;;
49460;SDS011;35355;49.198;-0.368;2022-07-05T14:49:15;1.17;;;0.20;;
49460;SDS011;35355;49.198;-0.368;2022-07-05T14:51:41;3.05;;;0.20;;
49460;SDS011;35355;49.198;-0.368;2022-07-05T14:54:06;1.75;;;0.30;;
49460;SDS011;35355;49.198;-0.368;2022-07-05T14:56:31;4.65;;;0.30;;
49460;SDS011;35355;49.198;-0.368;2022-07-05T14:58:57;3.35;;;0.60;;
49460;SDS011;35355;49.198;-0.368;2022-07-05T15:01:22;3.80;;;0.30;;
49460;SDS011;35355;49.198;-0.368;2022-07-05T15:03:47;3.10;;;0.75;;
49460;SDS011;35355;49.198;-0.368;2022-07-05T15:06:13;1.10;;;0.30;;
49460;SDS011;35355;49.198;-0.368;2022-07-05T15:08:38;0.20;;;0.20;;
49460;SDS011;35355;49.198;-0.368;2022-07-05T15:11:04;3.15;;;0.28;;
49460;SDS011;35355;49.198;-0.368;2022-07-05T15:13:29;1.40;;;0.28;;
49460;SDS011;35355;49.198;-0.368;2022-07-05T15:15:56;4.32;;;0.40;;
49460;SDS011;35355;49.198;-0.368;2022-07-05T15:18:22;3.22;;;0.30;;